sensor_id;sensor_type;location;lat;lon;timestamp;temperature;humidity
14154;DHT22;7157;53.144;7.570;2022-08-21T00:03:25;16.63;78.41
14154;DHT22;7157;53.144;7.570;2022-08-21T00:13:28;16.51;79.09
14154;DHT22;7157;53.144;7.570;2022-08-21T00:23:33;16.45;79.46
14154;DHT22;7157;53.144;7.570;2022-08-21T00:33:35;16.48;79.17
14154;DHT22;7157;53.144;7.570;2022-08-21T00:43:40;16.27;79.35
14154;DHT22;7157;53.144;7.570;2022-08-21T00:53:43;16.25;78.99
14154;DHT22;7157;53.144;7.570;2022-08-21T01:03:55;15.95;79.87
14154;DHT22;7157;53.144;7.570;2022-08-21T01:13:58;15.91;80.69
14154;DHT22;7157;53.144;7.570;2022-08-21T01:24:03;15.86;80.98
14154;DHT22;7157;53.144;7.570;2022-08-21T01:34:06;15.89;80.59
14154;DHT22;7157;53.144;7.570;2022-08-21T01:44:11;15.74;80.81
14154;DHT22;7157;53.144;7.570;2022-08-21T01:54:14;15.67;81.02
14154;DHT22;7157;53.144;7.570;2022-08-21T02:04:18;15.66;81.00
14154;DHT22;7157;53.144;7.570;2022-08-21T02:14:21;15.58;81.26
14154;DHT22;7157;53.144;7.570;2022-08-21T02:24:35;15.56;80.88
14154;DHT22;7157;53.144;7.570;2022-08-21T02:34:55;15.51;81.10
14154;DHT22;7157;53.144;7.570;2022-08-21T02:44:59;15.30;81.72
14154;DHT22;7157;53.144;7.570;2022-08-21T02:55:02;15.28;81.67
14154;DHT22;7157;53.144;7.570;2022-08-21T03:05:09;15.24;81.70
14154;DHT22;7157;53.144;7.570;2022-08-21T03:15:15;15.18;81.53
14154;DHT22;7157;53.144;7.570;2022-08-21T03:25:20;15.11;81.73
14154;DHT22;7157;53.144;7.570;2022-08-21T03:35:42;15.04;81.64
14154;DHT22;7157;53.144;7.570;2022-08-21T03:45:46;14.95;82.68
14154;DHT22;7157;53.144;7.570;2022-08-21T03:55:50;15.03;82.58
14154;DHT22;7157;53.144;7.570;2022-08-21T04:05:55;14.96;83.52
14154;DHT22;7157;53.144;7.570;2022-08-21T04:15:58;15.02;83.26
14154;DHT22;7157;53.144;7.570;2022-08-21T04:26:02;15.03;83.31
14154;DHT22;7157;53.144;7.570;2022-08-21T04:36:05;15.06;83.23
14154;DHT22;7157;53.144;7.570;2022-08-21T04:46:10;15.06;83.23
14154;DHT22;7157;53.144;7.570;2022-08-21T04:56:18;15.09;83.27
14154;DHT22;7157;53.144;7.570;2022-08-21T05:06:24;15.11;83.50
14154;DHT22;7157;53.144;7.570;2022-08-21T05:16:27;15.03;84.70
14154;DHT22;7157;53.144;7.570;2022-08-21T05:26:40;15.39;84.68
14154;DHT22;7157;53.144;7.570;2022-08-21T05:36:47;15.34;85.90
14154;DHT22;7157;53.144;7.570;2022-08-21T05:46:51;15.61;85.48
14154;DHT22;7157;53.144;7.570;2022-08-21T05:56:54;15.83;85.19
14154;DHT22;7157;53.144;7.570;2022-08-21T06:06:58;16.19;84.57
14154;DHT22;7157;53.144;7.570;2022-08-21T06:17:04;16.37;84.79
14154;DHT22;7157;53.144;7.570;2022-08-21T06:27:08;16.84;83.97
14154;DHT22;7157;53.144;7.570;2022-08-21T06:37:11;17.07;83.65
14154;DHT22;7157;53.144;7.570;2022-08-21T06:47:15;17.47;82.73
14154;DHT22;7157;53.144;7.570;2022-08-21T06:57:18;17.95;81.52
14154;DHT22;7157;53.144;7.570;2022-08-21T07:07:22;18.26;80.81
14154;DHT22;7157;53.144;7.570;2022-08-21T07:17:25;18.79;79.66
14154;DHT22;7157;53.144;7.570;2022-08-21T07:27:29;19.12;78.47
14154;DHT22;7157;53.144;7.570;2022-08-21T07:37:32;19.52;77.47
14154;DHT22;7157;53.144;7.570;2022-08-21T07:47:37;20.03;75.63
14154;DHT22;7157;53.144;7.570;2022-08-21T07:57:43;20.21;75.26
14154;DHT22;7157;53.144;7.570;2022-08-21T08:07:47;20.60;74.15
14154;DHT22;7157;53.144;7.570;2022-08-21T08:17:50;21.09;72.25
14154;DHT22;7157;53.144;7.570;2022-08-21T08:27:55;21.32;69.69
14154;DHT22;7157;53.144;7.570;2022-08-21T08:37:58;21.75;66.68
14154;DHT22;7157;53.144;7.570;2022-08-21T08:48:04;22.07;64.18
14154;DHT22;7157;53.144;7.570;2022-08-21T08:58:18;22.46;61.44
14154;DHT22;7157;53.144;7.570;2022-08-21T09:08:34;22.82;58.86
14154;DHT22;7157;53.144;7.570;2022-08-21T09:18:51;23.26;58.31
14154;DHT22;7157;53.144;7.570;2022-08-21T09:28:59;23.77;56.93
14154;DHT22;7157;53.144;7.570;2022-08-21T09:39:03;23.09;56.52
14154;DHT22;7157;53.144;7.570;2022-08-21T09:49:07;22.50;55.87
14154;DHT22;7157;53.144;7.570;2022-08-21T09:59:20;22.80;56.18
14154;DHT22;7157;53.144;7.570;2022-08-21T10:09:24;22.40;57.18
14154;DHT22;7157;53.144;7.570;2022-08-21T10:19:33;23.71;52.97
14154;DHT22;7157;53.144;7.570;2022-08-21T10:29:47;24.30;51.19
14154;DHT22;7157;53.144;7.570;2022-08-21T10:39:59;24.78;50.56
14154;DHT22;7157;53.144;7.570;2022-08-21T10:50:12;24.90;49.42
14154;DHT22;7157;53.144;7.570;2022-08-21T11:00:20;24.54;49.34
14154;DHT22;7157;53.144;7.570;2022-08-21T11:10:28;24.28;48.55
14154;DHT22;7157;53.144;7.570;2022-08-21T11:20:40;25.00;46.20
14154;DHT22;7157;53.144;7.570;2022-08-21T11:30:52;26.62;45.73
14154;DHT22;7157;53.144;7.570;2022-08-21T11:41:05;34.79;28.78
14154;DHT22;7157;53.144;7.570;2022-08-21T11:51:13;37.40;23.25
14154;DHT22;7157;53.144;7.570;2022-08-21T12:01:21;39.57;19.84
14154;DHT22;7157;53.144;7.570;2022-08-21T12:11:26;40.98;17.43
14154;DHT22;7157;53.144;7.570;2022-08-21T12:21:31;41.26;18.32
14154;DHT22;7157;53.144;7.570;2022-08-21T12:31:47;38.97;19.80
14154;DHT22;7157;53.144;7.570;2022-08-21T12:41:56;39.68;18.69
14154;DHT22;7157;53.144;7.570;2022-08-21T12:52:09;37.16;19.63
14154;DHT22;7157;53.144;7.570;2022-08-21T13:02:16;30.91;29.22
14154;DHT22;7157;53.144;7.570;2022-08-21T13:12:22;29.71;31.94
14154;DHT22;7157;53.144;7.570;2022-08-21T13:22:39;28.84;34.94
14154;DHT22;7157;53.144;7.570;2022-08-21T13:32:48;28.29;36.05
14154;DHT22;7157;53.144;7.570;2022-08-21T13:42:52;28.08;37.36
14154;DHT22;7157;53.144;7.570;2022-08-21T13:53:00;27.21;39.92
14154;DHT22;7157;53.144;7.570;2022-08-21T14:03:06;27.36;41.43
14154;DHT22;7157;53.144;7.570;2022-08-21T14:13:32;26.33;41.94
14154;DHT22;7157;53.144;7.570;2022-08-21T14:23:38;26.04;43.67
14154;DHT22;7157;53.144;7.570;2022-08-21T14:33:43;25.78;44.50
14154;DHT22;7157;53.144;7.570;2022-08-21T14:43:46;26.08;44.96
14154;DHT22;7157;53.144;7.570;2022-08-21T14:54:10;25.84;46.05
14154;DHT22;7157;53.144;7.570;2022-08-21T15:04:13;25.58;50.56
14154;DHT22;7157;53.144;7.570;2022-08-21T15:14:19;24.69;55.21
14154;DHT22;7157;53.144;7.570;2022-08-21T15:24:23;24.46;56.31
14154;DHT22;7157;53.144;7.570;2022-08-21T15:34:29;24.05;57.58
14154;DHT22;7157;53.144;7.570;2022-08-21T15:44:32;23.60;56.93
14154;DHT22;7157;53.144;7.570;2022-08-21T15:54:36;24.12;56.76
14154;DHT22;7157;53.144;7.570;2022-08-21T16:04:39;24.40;57.95
14154;DHT22;7157;53.144;7.570;2022-08-21T16:14:43;24.03;60.26
14154;DHT22;7157;53.144;7.570;2022-08-21T16:24:46;23.87;60.35
14154;DHT22;7157;53.144;7.570;2022-08-21T16:34:50;23.47;60.09
14154;DHT22;7157;53.144;7.570;2022-08-21T16:44:54;23.35;59.25
14154;DHT22;7157;53.144;7.570;2022-08-21T16:54:59;23.07;59.38
14154;DHT22;7157;53.144;7.570;2022-08-21T17:05:02;22.77;60.57
14154;DHT22;7157;53.144;7.570;2022-08-21T17:15:17;22.76;60.87
14154;DHT22;7157;53.144;7.570;2022-08-21T17:25:22;22.65;61.61
14154;DHT22;7157;53.144;7.570;2022-08-21T17:35:26;22.48;62.96
14154;DHT22;7157;53.144;7.570;2022-08-21T17:45:29;22.29;63.98
14154;DHT22;7157;53.144;7.570;2022-08-21T17:55:39;22.14;64.03
14154;DHT22;7157;53.144;7.570;2022-08-21T18:05:43;21.87;65.01
14154;DHT22;7157;53.144;7.570;2022-08-21T18:15:50;21.76;65.29
14154;DHT22;7157;53.144;7.570;2022-08-21T18:25:55;21.55;66.03
14154;DHT22;7157;53.144;7.570;2022-08-21T18:36:00;21.43;66.14
14154;DHT22;7157;53.144;7.570;2022-08-21T18:46:05;21.27;66.75
14154;DHT22;7157;53.144;7.570;2022-08-21T18:56:09;21.07;67.68
14154;DHT22;7157;53.144;7.570;2022-08-21T19:06:16;21.06;67.94
14154;DHT22;7157;53.144;7.570;2022-08-21T19:16:21;21.03;68.18
14154;DHT22;7157;53.144;7.570;2022-08-21T19:26:25;20.95;68.66
14154;DHT22;7157;53.144;7.570;2022-08-21T19:36:31;20.90;68.91
14154;DHT22;7157;53.144;7.570;2022-08-21T19:46:36;20.77;69.42
14154;DHT22;7157;53.144;7.570;2022-08-21T19:56:43;20.73;69.61
14154;DHT22;7157;53.144;7.570;2022-08-21T20:06:48;20.46;70.94
14154;DHT22;7157;53.144;7.570;2022-08-21T20:16:52;20.35;71.48
14154;DHT22;7157;53.144;7.570;2022-08-21T20:26:56;20.40;71.38
14154;DHT22;7157;53.144;7.570;2022-08-21T20:37:00;20.30;71.48
14154;DHT22;7157;53.144;7.570;2022-08-21T20:47:06;19.90;72.79
14154;DHT22;7157;53.144;7.570;2022-08-21T20:57:15;19.68;73.89
14154;DHT22;7157;53.144;7.570;2022-08-21T21:07:25;19.67;74.18
14154;DHT22;7157;53.144;7.570;2022-08-21T21:17:36;19.69;74.57
14154;DHT22;7157;53.144;7.570;2022-08-21T21:27:43;19.81;74.23
14154;DHT22;7157;53.144;7.570;2022-08-21T21:37:56;19.66;74.72
14154;DHT22;7157;53.144;7.570;2022-08-21T21:48:05;19.63;75.18
14154;DHT22;7157;53.144;7.570;2022-08-21T21:58:33;19.59;75.57
14154;DHT22;7157;53.144;7.570;2022-08-21T22:08:44;19.60;75.55
14154;DHT22;7157;53.144;7.570;2022-08-21T22:18:55;19.67;75.17
14154;DHT22;7157;53.144;7.570;2022-08-21T22:29:02;19.51;75.83
14154;DHT22;7157;53.144;7.570;2022-08-21T22:39:16;19.48;75.70
14154;DHT22;7157;53.144;7.570;2022-08-21T22:49:30;19.43;75.88
14154;DHT22;7157;53.144;7.570;2022-08-21T22:59:39;19.54;75.72
14154;DHT22;7157;53.144;7.570;2022-08-21T23:09:46;19.56;75.87
14154;DHT22;7157;53.144;7.570;2022-08-21T23:19:59;19.46;76.31
14154;DHT22;7157;53.144;7.570;2022-08-21T23:30:07;19.38;76.72
14154;DHT22;7157;53.144;7.570;2022-08-21T23:51:10;19.12;77.44
